Time;durP1;ratioP1;P1;durP2;ratioP2;P2;SDS_P1;SDS_P2;PMS_P1;PMS_P2;Temp;Humidity;BMP_temperature;BMP_pressure;BME280_temperature;BME280_humidity;BME280_pressure;Samples;Min_cycle;Max_cycle;Signal;HPM_P1;HPM_P2
2021/12/23 00:02:02;;;;;;;11.02;9.02;;;-0.80;99.90;;;;;;4993308;28;20093;-77
2021/12/23 00:04:27;;;;;;;16.10;9.10;;;-0.70;99.90;;;;;;4976585;28;20096;-78
2021/12/23 00:06:53;;;;;;;11.18;8.55;;;-0.80;99.90;;;;;;4992286;28;20552;-78
2021/12/23 00:09:20;;;;;;;11.52;9.15;;;-1.00;99.90;;;;;;4992459;28;20046;-78
2021/12/23 00:11:46;;;;;;;13.38;8.82;;;-2.40;99.90;;;;;;4977334;28;20085;-78
2021/12/23 00:14:11;;;;;;;12.77;9.52;;;-1.20;99.90;;;;;;4978115;28;20402;-78
2021/12/23 00:19:19;;;;;;;12.07;8.98;;;-1.20;99.90;;;;;;4996596;28;20057;-78
2021/12/23 00:24:30;;;;;;;16.10;9.70;;;-0.90;99.90;;;;;;4995196;28;20074;-78
2021/12/23 00:26:56;;;;;;;12.52;9.48;;;-0.80;99.90;;;;;;5013275;28;20045;-78
2021/12/23 00:29:21;;;;;;;11.70;8.65;;;-0.90;99.90;;;;;;4995482;28;20044;-78
2021/12/23 00:31:47;;;;;;;13.95;9.43;;;-0.80;99.90;;;;;;4972278;28;20042;-78
2021/12/23 00:34:12;;;;;;;13.80;8.52;;;-1.10;99.90;;;;;;4994855;28;20482;-78
2021/12/23 00:36:41;;;;;;;15.20;9.65;;;-0.30;99.90;;;;;;4963353;28;20467;-78
2021/12/23 00:39:08;;;;;;;15.73;9.75;;;0.00;99.90;;;;;;4996058;28;20053;-78
2021/12/23 00:41:34;;;;;;;14.48;10.07;;;-0.80;99.90;;;;;;4979082;28;20413;-78
2021/12/23 00:44:00;;;;;;;12.32;9.07;;;-0.70;99.90;;;;;;4979341;28;20045;-77
2021/12/23 00:46:26;;;;;;;15.50;9.85;;;-1.30;99.90;;;;;;4979519;28;20041;-78
2021/12/23 00:48:51;;;;;;;13.82;9.27;;;-1.10;99.90;;;;;;4979047;28;20049;-78
2021/12/23 00:51:19;;;;;;;13.98;9.15;;;-0.90;99.90;;;;;;4979268;28;20037;-78
2021/12/23 00:53:48;;;;;;;14.15;9.07;;;-0.90;99.90;;;;;;4995212;28;20486;-78
2021/12/23 00:56:14;;;;;;;12.40;9.38;;;-0.80;99.90;;;;;;4994806;28;20046;-78
2021/12/23 00:58:40;;;;;;;14.65;9.30;;;-0.70;99.90;;;;;;4995133;28;20555;-77
2021/12/23 01:01:06;;;;;;;16.58;10.38;;;-0.60;99.90;;;;;;4995424;28;20092;-78
2021/12/23 01:03:32;;;;;;;15.88;9.75;;;1.30;99.90;;;;;;4977691;28;20045;-78
2021/12/23 01:05:57;;;;;;;13.25;9.32;;;-0.30;99.90;;;;;;4995471;28;20042;-78
2021/12/23 01:08:24;;;;;;;16.02;10.40;;;0.90;99.90;;;;;;4994235;28;20073;-78
2021/12/23 01:10:55;;;;;;;14.98;9.05;;;-1.20;99.90;;;;;;4978269;28;20050;-78
2021/12/23 01:13:25;;;;;;;13.60;9.60;;;-0.60;99.90;;;;;;4994560;28;20379;-78
2021/12/23 01:16:03;;;;;;;15.82;10.27;;;0.00;99.90;;;;;;4986680;28;20100;-78
2021/12/23 01:18:42;;;;;;;16.70;9.77;;;-0.30;99.90;;;;;;4978071;28;20042;-78
2021/12/23 01:21:17;;;;;;;14.02;9.10;;;-0.60;99.90;;;;;;4995115;28;20051;-78
2021/12/23 01:23:56;;;;;;;17.55;10.25;;;-0.60;99.90;;;;;;4978169;28;20049;-78
2021/12/23 01:26:24;;;;;;;16.38;9.90;;;-0.90;99.90;;;;;;4994392;28;20474;-78
2021/12/23 01:28:53;;;;;;;14.38;9.73;;;1.10;99.90;;;;;;4971051;28;20044;-78
2021/12/23 01:31:25;;;;;;;15.98;9.68;;;-0.70;99.90;;;;;;4993871;28;20054;-78
2021/12/23 01:33:51;;;;;;;16.13;10.80;;;-0.70;99.90;;;;;;4986967;28;20046;-77
2021/12/23 01:36:17;;;;;;;15.30;9.35;;;-0.70;99.90;;;;;;4978503;28;20042;-78
2021/12/23 01:38:43;;;;;;;16.08;9.48;;;-0.60;99.90;;;;;;4978115;28;20044;-78
2021/12/23 01:41:08;;;;;;;14.93;10.50;;;1.30;99.90;;;;;;4995126;28;20068;-78
2021/12/23 01:43:34;;;;;;;15.30;9.82;;;-0.80;99.90;;;;;;4977510;28;20045;-78
2021/12/23 01:46:01;;;;;;;13.68;10.07;;;-0.80;99.90;;;;;;4977616;28;20044;-78
2021/12/23 01:48:26;;;;;;;13.65;9.68;;;1.60;99.90;;;;;;4993984;28;20375;-78
2021/12/23 01:50:52;;;;;;;14.45;9.68;;;-0.80;99.90;;;;;;4994133;28;20049;-78
2021/12/23 01:53:18;;;;;;;19.00;10.48;;;-1.00;99.90;;;;;;4977737;28;20041;-78
2021/12/23 01:55:45;;;;;;;17.75;11.15;;;-1.00;99.90;;;;;;4978023;28;20053;-78
2021/12/23 01:58:12;;;;;;;13.82;9.27;;;-0.70;99.90;;;;;;4994212;28;20034;-78
2021/12/23 02:00:40;;;;;;;16.10;9.90;;;-0.60;99.90;;;;;;4977671;28;20132;-78
2021/12/23 02:03:06;;;;;;;15.85;10.38;;;-0.60;99.90;;;;;;4994427;28;20066;-78
2021/12/23 02:05:33;;;;;;;17.85;9.98;;;-0.60;99.90;;;;;;4977072;28;20063;-77
2021/12/23 02:07:59;;;;;;;15.23;11.25;;;-0.70;99.90;;;;;;4995113;28;20042;-78
2021/12/23 02:10:26;;;;;;;16.42;10.00;;;-0.30;99.90;;;;;;4977733;28;20049;-78
2021/12/23 02:12:52;;;;;;;12.75;9.55;;;-0.50;99.90;;;;;;4993390;28;20136;-78
2021/12/23 02:15:18;;;;;;;13.38;9.27;;;-0.50;99.90;;;;;;4977414;28;20140;-77
2021/12/23 02:17:45;;;;;;;15.77;10.57;;;-0.30;99.90;;;;;;4994836;28;20389;-77
2021/12/23 02:20:14;;;;;;;14.10;10.07;;;-0.50;99.90;;;;;;4983795;28;20030;-77
2021/12/23 02:22:41;;;;;;;15.77;10.10;;;0.00;99.90;;;;;;4983747;28;20054;-78
2021/12/23 02:25:07;;;;;;;12.82;9.10;;;-0.80;99.90;;;;;;5001004;28;20042;-78
2021/12/23 02:27:34;;;;;;;16.33;10.30;;;-0.60;99.90;;;;;;4983312;28;20049;-78
2021/12/23 02:29:59;;;;;;;15.15;10.10;;;-0.80;99.90;;;;;;5000567;28;20069;-78
2021/12/23 02:32:25;;;;;;;12.73;10.15;;;-1.00;99.90;;;;;;4984160;28;20080;-78
2021/12/23 02:34:51;;;;;;;13.50;10.48;;;0.00;99.90;;;;;;4983445;28;20042;-78
2021/12/23 02:37:16;;;;;;;17.30;10.20;;;0.10;99.90;;;;;;4984472;28;20077;-77
2021/12/23 02:39:42;;;;;;;15.30;10.18;;;-0.70;99.90;;;;;;5000720;28;20092;-78
2021/12/23 02:42:09;;;;;;;18.85;10.50;;;-0.60;99.90;;;;;;4984315;28;20038;-77
2021/12/23 02:44:34;;;;;;;13.80;10.00;;;-0.70;99.90;;;;;;4983474;28;20477;-77
2021/12/23 02:47:00;;;;;;;16.02;11.27;;;-0.60;99.90;;;;;;4984037;28;20071;-78
2021/12/23 02:49:26;;;;;;;18.30;10.75;;;-0.70;99.90;;;;;;4983815;28;20093;-77
2021/12/23 02:51:52;;;;;;;14.68;10.88;;;0.20;99.90;;;;;;5000793;28;20050;-77
2021/12/23 02:54:18;;;;;;;14.73;10.40;;;-0.50;99.90;;;;;;4998815;28;20501;-78
2021/12/23 02:56:44;;;;;;;16.67;10.07;;;-0.50;99.90;;;;;;4984214;28;20490;-77
2021/12/23 02:59:09;;;;;;;15.30;10.23;;;-0.60;99.90;;;;;;5000554;28;20060;-78
2021/12/23 03:01:35;;;;;;;14.90;10.48;;;-0.30;99.90;;;;;;4982954;28;20045;-78
2021/12/23 03:04:01;;;;;;;12.93;9.88;;;-0.60;99.90;;;;;;4984155;28;20037;-78
2021/12/23 03:06:27;;;;;;;14.57;10.00;;;-0.70;99.90;;;;;;4999904;28;20030;-78
2021/12/23 03:08:56;;;;;;;15.13;10.48;;;-0.40;99.90;;;;;;4983736;28;20099;-77
2021/12/23 03:11:25;;;;;;;15.70;11.27;;;-0.50;99.90;;;;;;4983501;28;20041;-77
2021/12/23 03:13:51;;;;;;;14.57;10.80;;;-0.50;99.90;;;;;;4999965;28;20081;-77
2021/12/23 03:16:22;;;;;;;15.00;10.55;;;-1.20;99.90;;;;;;4982636;28;20060;-77
2021/12/23 03:18:49;;;;;;;16.65;10.63;;;-0.50;99.90;;;;;;5000526;28;20033;-78
2021/12/23 03:21:15;;;;;;;17.17;11.65;;;-0.70;99.90;;;;;;4984474;28;20081;-77
2021/12/23 03:23:41;;;;;;;15.63;11.65;;;-1.00;99.90;;;;;;4982402;28;20521;-78
2021/12/23 03:26:07;;;;;;;17.05;11.68;;;1.60;99.90;;;;;;4984201;28;20048;-77
2021/12/23 03:28:33;;;;;;;18.38;11.38;;;-0.60;99.90;;;;;;4983648;28;20125;-78
2021/12/23 03:30:59;;;;;;;15.75;10.70;;;0.70;99.90;;;;;;4980424;28;20096;-78
2021/12/23 03:33:25;;;;;;;18.15;11.32;;;-0.80;99.90;;;;;;4996440;28;20085;-78
2021/12/23 03:35:51;;;;;;;17.60;11.88;;;-0.50;99.90;;;;;;4997067;28;20065;-78
2021/12/23 03:38:17;;;;;;;17.45;11.35;;;-0.50;99.90;;;;;;4995938;28;20140;-78
2021/12/23 03:40:43;;;;;;;15.77;10.93;;;-0.60;99.90;;;;;;4981156;28;20042;-77
2021/12/23 03:43:14;;;;;;;18.23;12.98;;;-0.50;99.90;;;;;;4996745;28;20524;-78
2021/12/23 03:45:42;;;;;;;18.65;11.27;;;0.00;99.90;;;;;;4979567;28;20054;-77
2021/12/23 03:48:08;;;;;;;17.40;11.57;;;0.10;99.90;;;;;;4980991;28;20038;-77
2021/12/23 03:50:34;;;;;;;15.93;11.80;;;-0.50;99.90;;;;;;4995487;28;20468;-78
2021/12/23 03:53:00;;;;;;;15.93;11.68;;;-0.50;99.90;;;;;;4980355;28;20041;-78
2021/12/23 03:55:26;;;;;;;16.05;11.38;;;-0.30;99.90;;;;;;4995897;28;20085;-77
2021/12/23 03:57:51;;;;;;;17.83;11.55;;;1.10;99.90;;;;;;4995781;28;20445;-77
2021/12/23 04:00:20;;;;;;;18.30;11.60;;;-0.60;99.90;;;;;;5013869;28;20049;-78
2021/12/23 04:02:46;;;;;;;14.52;11.15;;;-0.30;99.90;;;;;;4980222;28;20064;-77
2021/12/23 04:05:13;;;;;;;18.33;11.98;;;-0.40;99.90;;;;;;4979840;28;20516;-77
2021/12/23 04:07:39;;;;;;;18.77;12.10;;;-0.50;99.90;;;;;;4979681;28;20077;-78
2021/12/23 04:10:07;;;;;;;17.30;11.85;;;-0.70;99.90;;;;;;4980271;28;20077;-78
2021/12/23 04:12:33;;;;;;;17.55;12.25;;;-0.40;99.90;;;;;;4978757;28;20049;-78
2021/12/23 04:14:59;;;;;;;23.98;11.75;;;-0.50;99.90;;;;;;4995940;28;20042;-77
2021/12/23 04:17:24;;;;;;;18.58;10.85;;;0.00;99.90;;;;;;4979422;28;20103;-77
2021/12/23 04:19:50;;;;;;;18.50;12.20;;;-0.30;99.90;;;;;;4979679;28;20091;-78
2021/12/23 04:22:16;;;;;;;18.75;11.80;;;-0.50;99.90;;;;;;4980004;28;20046;-78
2021/12/23 04:24:42;;;;;;;17.83;11.60;;;-1.00;99.90;;;;;;4979315;28;20118;-77
2021/12/23 04:27:08;;;;;;;18.27;12.00;;;1.60;99.90;;;;;;4979478;28;20037;-78
2021/12/23 04:29:33;;;;;;;18.25;12.82;;;-0.50;99.90;;;;;;4979377;28;20054;-78
2021/12/23 04:32:00;;;;;;;19.23;12.65;;;-0.70;99.90;;;;;;4980174;28;20394;-78
2021/12/23 04:34:26;;;;;;;16.15;11.90;;;-1.10;99.90;;;;;;4978661;28;20081;-78
2021/12/23 04:36:52;;;;;;;18.30;12.20;;;-0.70;99.90;;;;;;4979697;28;20041;-78
2021/12/23 04:39:17;;;;;;;16.75;11.68;;;-0.80;99.90;;;;;;4995261;28;20041;-78
2021/12/23 04:41:43;;;;;;;16.75;11.73;;;-0.10;99.90;;;;;;4994954;28;20042;-78
2021/12/23 04:44:09;;;;;;;15.93;11.63;;;-0.40;99.90;;;;;;4979425;28;20034;-78
2021/12/23 04:46:34;;;;;;;17.58;12.35;;;-0.50;99.90;;;;;;4978535;28;20050;-78
2021/12/23 04:49:00;;;;;;;18.02;13.15;;;-0.50;99.90;;;;;;4996066;28;20037;-78
2021/12/23 04:51:26;;;;;;;19.58;13.10;;;0.30;99.90;;;;;;4979419;28;20038;-78
2021/12/23 04:53:51;;;;;;;17.90;11.55;;;-1.00;99.90;;;;;;4978352;28;20490;-78
2021/12/23 04:56:18;;;;;;;17.67;12.48;;;-0.40;99.90;;;;;;4978999;28;20133;-78
2021/12/23 04:58:45;;;;;;;19.92;12.15;;;-0.50;99.90;;;;;;4995513;28;20096;-78
2021/12/23 05:01:21;;;;;;;19.88;11.88;;;-0.70;99.90;;;;;;4995167;28;20057;-78
2021/12/23 05:03:47;;;;;;;19.08;11.48;;;-0.10;99.90;;;;;;4995600;28;20441;-77
2021/12/23 05:06:15;;;;;;;16.92;12.27;;;-0.30;99.90;;;;;;4995455;28;20046;-78
2021/12/23 05:08:41;;;;;;;17.00;11.57;;;1.90;99.90;;;;;;4994273;28;20053;-78
2021/12/23 05:11:06;;;;;;;22.83;12.48;;;1.60;99.90;;;;;;4979415;28;20042;-78
2021/12/23 05:13:32;;;;;;;16.00;10.88;;;-0.30;99.90;;;;;;4978225;28;20081;-78
2021/12/23 05:15:57;;;;;;;18.67;12.13;;;0.00;99.90;;;;;;4994334;28;20557;-78
2021/12/23 05:18:23;;;;;;;18.00;12.02;;;-0.30;99.90;;;;;;4978420;28;20402;-78
2021/12/23 05:20:49;;;;;;;18.88;12.27;;;-0.30;99.90;;;;;;4995234;28;20387;-78
2021/12/23 05:23:15;;;;;;;23.55;12.80;;;-0.20;99.90;;;;;;4978147;28;20466;-78
2021/12/23 05:25:41;;;;;;;21.05;12.50;;;-0.20;99.90;;;;;;4978657;28;20042;-78
2021/12/23 05:28:07;;;;;;;19.33;12.23;;;-0.30;99.90;;;;;;4979101;28;20030;-78
2021/12/23 05:30:33;;;;;;;18.77;12.90;;;-0.40;99.90;;;;;;4993679;28;20397;-78
2021/12/23 05:32:58;;;;;;;17.70;11.85;;;0.50;99.90;;;;;;4978592;28;20482;-77
2021/12/23 05:35:25;;;;;;;17.67;13.05;;;0.20;99.90;;;;;;4978324;28;20045;-77
2021/12/23 05:37:52;;;;;;;19.88;13.65;;;-0.30;99.90;;;;;;4978271;28;20560;-78
2021/12/23 05:40:20;;;;;;;19.23;13.02;;;-0.30;99.90;;;;;;4978035;28;20379;-77
2021/12/23 05:42:47;;;;;;;19.08;13.32;;;-0.20;99.90;;;;;;4994606;28;20053;-78
2021/12/23 05:45:13;;;;;;;16.60;12.10;;;-0.20;99.90;;;;;;4993963;28;20041;-78
2021/12/23 05:47:39;;;;;;;18.17;13.00;;;-0.30;99.90;;;;;;4977796;28;20091;-78
2021/12/23 05:50:05;;;;;;;20.35;12.77;;;-1.40;99.90;;;;;;4994180;28;20406;-78
2021/12/23 05:52:31;;;;;;;19.27;13.57;;;-0.20;99.90;;;;;;4977527;28;20034;-78
2021/12/23 05:54:57;;;;;;;16.80;12.13;;;-0.30;99.90;;;;;;4994035;28;20042;-78
2021/12/23 05:57:23;;;;;;;20.58;13.73;;;-0.20;99.90;;;;;;4961028;28;20405;-78
2021/12/23 05:59:49;;;;;;;21.85;14.13;;;-0.10;99.90;;;;;;4977965;28;20053;-77
2021/12/23 06:02:15;;;;;;;20.35;12.88;;;-0.30;99.90;;;;;;4978009;28;20049;-78
2021/12/23 06:04:41;;;;;;;23.15;12.85;;;-0.10;99.90;;;;;;4977098;28;20042;-78
2021/12/23 06:07:07;;;;;;;18.95;13.40;;;1.20;99.90;;;;;;4994349;28;20046;-78
2021/12/23 06:09:32;;;;;;;19.67;13.52;;;-0.10;99.90;;;;;;4977545;28;20437;-78
2021/12/23 06:11:58;;;;;;;20.25;13.60;;;1.00;99.90;;;;;;4993763;28;20033;-78
2021/12/23 06:14:23;;;;;;;19.40;14.35;;;-0.20;99.90;;;;;;4993336;28;20057;-78
2021/12/23 06:16:49;;;;;;;18.70;13.35;;;-0.50;99.90;;;;;;4978065;28;20050;-78
2021/12/23 06:19:15;;;;;;;20.63;13.25;;;-0.10;99.90;;;;;;4993881;28;20042;-78
2021/12/23 06:21:41;;;;;;;22.67;14.38;;;-0.20;99.90;;;;;;4993942;28;20398;-78
2021/12/23 06:24:07;;;;;;;19.35;13.48;;;0.00;99.90;;;;;;4977742;28;20038;-78
2021/12/23 06:26:33;;;;;;;20.75;13.77;;;-0.20;99.90;;;;;;4977052;28;20452;-78
2021/12/23 06:28:59;;;;;;;20.98;14.82;;;-0.70;99.90;;;;;;4978071;28;20053;-78
2021/12/23 06:31:25;;;;;;;22.17;14.30;;;-0.10;99.90;;;;;;4993677;28;20402;-77
2021/12/23 06:33:51;;;;;;;21.50;13.65;;;-0.20;99.90;;;;;;4977215;28;20038;-78
2021/12/23 06:36:17;;;;;;;24.48;14.90;;;-0.10;99.90;;;;;;4978000;28;20096;-77
2021/12/23 06:38:44;;;;;;;21.08;13.45;;;1.90;99.90;;;;;;4977787;28;20045;-78
2021/12/23 06:41:10;;;;;;;21.27;14.85;;;-0.60;99.90;;;;;;4977742;28;20056;-78
2021/12/23 06:43:37;;;;;;;19.63;13.57;;;-0.50;99.90;;;;;;4976965;28;20037;-77
2021/12/23 06:46:03;;;;;;;20.08;13.52;;;-0.10;99.90;;;;;;4994261;28;20077;-78
2021/12/23 06:48:32;;;;;;;22.88;14.23;;;0.00;99.90;;;;;;4976596;28;20076;-77
2021/12/23 06:50:59;;;;;;;22.20;14.20;;;0.00;99.90;;;;;;4986204;28;20081;-78
2021/12/23 06:53:26;;;;;;;20.90;14.15;;;0.00;99.90;;;;;;4976865;28;20096;-77
2021/12/23 06:55:52;;;;;;;22.63;14.63;;;-0.10;99.90;;;;;;4993770;28;20567;-77
2021/12/23 06:58:23;;;;;;;20.60;15.55;;;0.20;99.90;;;;;;4977484;28;20080;-78
2021/12/23 07:00:51;;;;;;;21.58;14.45;;;0.20;99.90;;;;;;4976779;28;20042;-78
2021/12/23 07:03:16;;;;;;;20.92;14.48;;;0.40;99.90;;;;;;4977584;28;20048;-77
2021/12/23 07:05:43;;;;;;;22.70;15.68;;;0.00;99.90;;;;;;4994460;28;20465;-78
2021/12/23 07:08:23;;;;;;;23.80;15.23;;;-0.20;99.90;;;;;;4996698;28;20347;-78
2021/12/23 07:10:49;;;;;;;23.48;15.27;;;-0.10;99.90;;;;;;4997858;28;20054;-78
2021/12/23 07:13:15;;;;;;;23.55;14.63;;;1.70;99.90;;;;;;4997340;28;20401;-77
2021/12/23 07:15:40;;;;;;;29.10;16.75;;;1.70;99.90;;;;;;4996172;28;20164;-77
2021/12/23 07:18:06;;;;;;;20.98;15.63;;;0.10;99.90;;;;;;4997423;28;20081;-78
2021/12/23 07:20:32;;;;;;;21.65;16.17;;;-0.50;99.90;;;;;;5014310;28;20084;-77
2021/12/23 07:22:58;;;;;;;26.85;15.80;;;0.20;99.90;;;;;;4980310;28;20042;-77
2021/12/23 07:25:23;;;;;;;22.83;15.35;;;-0.30;99.90;;;;;;4980325;28;20557;-77
2021/12/23 07:27:49;;;;;;;22.50;15.60;;;-1.00;99.90;;;;;;4997180;28;20132;-77
2021/12/23 07:30:21;;;;;;;25.23;16.05;;;-0.20;99.90;;;;;;4980251;28;20077;-78
2021/12/23 07:32:50;;;;;;;27.45;16.38;;;-0.60;99.90;;;;;;4980511;28;20049;-77
2021/12/23 07:35:18;;;;;;;22.48;14.77;;;-0.60;99.90;;;;;;4980310;28;20548;-78
2021/12/23 07:37:44;;;;;;;25.15;16.15;;;-0.30;99.90;;;;;;4980659;28;20045;-77
2021/12/23 07:40:16;;;;;;;27.55;16.15;;;1.70;99.90;;;;;;4997269;28;20046;-77
2021/12/23 07:42:52;;;;;;;23.42;15.40;;;0.00;99.90;;;;;;4979540;28;20457;-77
2021/12/23 07:45:18;;;;;;;35.20;21.70;;;-0.20;99.90;;;;;;4996151;28;20521;-77
2021/12/23 07:47:44;;;;;;;29.55;17.20;;;0.90;99.90;;;;;;4980495;28;20401;-78
2021/12/23 07:50:10;;;;;;;21.65;14.90;;;-0.40;99.90;;;;;;4980481;28;20041;-78
2021/12/23 07:52:36;;;;;;;26.27;16.33;;;-0.10;99.90;;;;;;4995989;28;20053;-78
2021/12/23 07:55:01;;;;;;;23.67;15.88;;;-0.70;99.90;;;;;;4980357;28;20030;-78
2021/12/23 07:57:27;;;;;;;28.95;17.52;;;1.20;99.90;;;;;;4979146;28;20061;-77
2021/12/23 07:59:53;;;;;;;20.13;14.80;;;0.90;99.90;;;;;;4980084;28;20038;-78
2021/12/23 08:02:18;;;;;;;24.95;16.80;;;-0.10;99.90;;;;;;4980092;28;20458;-78
2021/12/23 08:04:44;;;;;;;23.13;16.42;;;-0.10;99.90;;;;;;4979592;28;20077;-78
2021/12/23 08:07:10;;;;;;;21.67;15.43;;;-0.20;99.90;;;;;;4980350;28;20053;-78
2021/12/23 08:09:35;;;;;;;23.30;16.50;;;-0.20;99.90;;;;;;4995601;28;20053;-77
2021/12/23 08:12:05;;;;;;;25.65;17.40;;;0.20;99.90;;;;;;4979603;28;20088;-77
2021/12/23 08:14:31;;;;;;;25.00;18.15;;;-0.10;99.90;;;;;;4995602;28;20093;-77
2021/12/23 08:16:57;;;;;;;24.45;16.80;;;0.30;99.90;;;;;;4979844;28;20050;-77
2021/12/23 08:19:22;;;;;;;24.33;16.63;;;1.50;99.90;;;;;;4978913;28;20041;-77
2021/12/23 08:21:48;;;;;;;27.13;17.08;;;-0.20;99.90;;;;;;4996160;28;20046;-77
2021/12/23 08:24:14;;;;;;;25.30;16.67;;;-0.20;99.90;;;;;;4996333;28;20390;-78
2021/12/23 08:26:41;;;;;;;24.48;16.63;;;-0.30;99.90;;;;;;4978793;28;20498;-77
2021/12/23 08:29:07;;;;;;;26.92;18.80;;;-0.50;99.90;;;;;;4979724;28;20088;-78
2021/12/23 08:31:34;;;;;;;27.42;17.90;;;-0.20;99.90;;;;;;4979209;28;20050;-77
2021/12/23 08:34:00;;;;;;;29.88;18.13;;;-0.10;99.90;;;;;;4979067;28;20091;-77
2021/12/23 08:36:26;;;;;;;22.52;15.48;;;-0.20;99.90;;;;;;4979438;28;20049;-77
2021/12/23 08:38:51;;;;;;;30.00;17.95;;;0.00;99.90;;;;;;4979229;28;20044;-77
2021/12/23 08:41:17;;;;;;;27.58;18.75;;;0.50;99.90;;;;;;4979435;28;20044;-77
2021/12/23 08:43:44;;;;;;;28.92;18.67;;;-0.80;99.90;;;;;;4979262;28;20061;-77
2021/12/23 08:46:10;;;;;;;28.77;17.52;;;;;;;;;;4979100;28;20523;-77
2021/12/23 08:48:36;;;;;;;25.17;18.48;;;-0.10;99.90;;;;;;4979082;28;20486;-78
2021/12/23 08:51:02;;;;;;;28.65;18.95;;;-0.20;99.90;;;;;;5004038;28;20034;-78
2021/12/23 08:53:28;;;;;;;31.85;19.13;;;-0.20;99.90;;;;;;4978175;28;20030;-78
2021/12/23 08:55:54;;;;;;;26.38;18.50;;;-0.60;99.90;;;;;;4979642;28;20049;-78
2021/12/23 08:58:19;;;;;;;26.95;18.58;;;-0.20;99.90;;;;;;4995178;28;20117;-77
2021/12/23 09:00:45;;;;;;;28.55;18.50;;;0.70;99.90;;;;;;4979173;28;20560;-78
2021/12/23 09:03:10;;;;;;;30.08;19.10;;;0.80;99.90;;;;;;4995378;28;20129;-78
2021/12/23 09:05:37;;;;;;;28.15;20.33;;;-0.10;99.90;;;;;;4978441;28;20085;-77
2021/12/23 09:08:05;;;;;;;27.98;19.60;;;-0.20;99.90;;;;;;5003515;28;20459;-77
2021/12/23 09:10:31;;;;;;;29.80;19.33;;;-0.80;99.90;;;;;;4978865;28;20077;-78
2021/12/23 09:12:56;;;;;;;32.30;21.00;;;-0.50;99.90;;;;;;4978743;28;20088;-77
2021/12/23 09:15:22;;;;;;;28.55;20.60;;;-0.10;99.90;;;;;;4977660;28;20406;-77
2021/12/23 09:17:49;;;;;;;29.27;20.20;;;-0.20;99.90;;;;;;4979094;28;20438;-78
2021/12/23 09:20:17;;;;;;;33.33;19.55;;;0.50;99.90;;;;;;4979107;28;20486;-77
2021/12/23 09:22:43;;;;;;;32.35;20.45;;;-0.10;99.90;;;;;;4994167;28;20034;-78
2021/12/23 09:25:18;;;;;;;31.77;20.65;;;0.00;99.90;;;;;;4979017;28;20042;-78
2021/12/23 09:33:04;;;;;;;;;;;0.00;99.90;;;;;;5019708;28;20042;-78
2021/12/23 09:35:30;;;;;;;30.60;20.77;;;-0.20;99.90;;;;;;4993587;28;19932;-78
2021/12/23 09:37:57;;;;;;;37.63;23.40;;;0.40;99.90;;;;;;4978943;28;20077;-78
2021/12/23 09:40:23;;;;;;;39.88;25.38;;;-0.10;99.90;;;;;;4991375;28;20050;-76
2021/12/23 09:42:50;;;;;;;33.22;21.95;;;-0.10;99.90;;;;;;4969521;28;20121;-78
2021/12/23 09:45:18;;;;;;;39.70;24.67;;;-0.30;99.90;;;;;;5023305;28;20046;-78
2021/12/23 09:47:48;;;;;;;39.58;24.30;;;-0.60;99.90;;;;;;4976643;28;20045;-78
2021/12/23 09:50:17;;;;;;;43.35;24.73;;;-0.10;99.90;;;;;;4975016;28;20045;-76
2021/12/23 09:52:47;;;;;;;38.20;24.23;;;-0.50;99.90;;;;;;4976650;28;20042;-77
2021/12/23 09:55:18;;;;;;;45.45;29.17;;;0.00;99.90;;;;;;4973270;28;20557;-78
2021/12/23 09:57:46;;;;;;;54.67;32.80;;;-0.10;99.90;;;;;;4970010;28;20563;-78
2021/12/23 10:00:14;;;;;;;43.53;26.30;;;-0.10;99.90;;;;;;4993268;28;20038;-76
2021/12/23 10:02:41;;;;;;;40.78;26.08;;;-0.10;99.90;;;;;;4975009;28;20398;-79
2021/12/23 10:05:16;;;;;;;42.28;26.33;;;-0.10;99.90;;;;;;4968270;28;20077;-77
2021/12/23 10:07:44;;;;;;;44.47;27.08;;;-0.10;99.90;;;;;;4993875;28;20045;-79
2021/12/23 10:10:26;;;;;;;47.47;28.33;;;0.00;99.90;;;;;;4986327;28;20049;-77
2021/12/23 10:13:18;;;;;;;50.20;27.70;;;-0.10;99.90;;;;;;4977423;28;20045;-76
2021/12/23 10:30:15;;;;;;;52.33;29.30;;;0.00;99.90;;;;;;4994086;28;20140;-80
2021/12/23 10:38:14;;;;;;;90.22;54.10;;;0.00;99.90;;;;;;4994104;28;20061;-78
2021/12/23 10:40:45;;;;;;;60.78;34.83;;;0.10;99.90;;;;;;4995833;28;20050;-77
2021/12/23 10:43:25;;;;;;;56.67;31.42;;;0.10;99.90;;;;;;4998135;28;20042;-80
2021/12/23 10:46:00;;;;;;;50.80;29.50;;;0.10;99.90;;;;;;4997501;28;20049;-78
2021/12/23 10:48:31;;;;;;;51.45;30.48;;;0.20;99.90;;;;;;4997644;28;20038;-78
2021/12/23 10:51:03;;;;;;;54.72;31.52;;;0.20;99.90;;;;;;4998130;28;20054;-76
2021/12/23 10:54:08;;;;;;;55.10;30.88;;;-0.10;99.90;;;;;;4980181;28;20037;-79
2021/12/23 10:59:25;;;;;;;55.92;31.10;;;0.10;99.90;;;;;;5022322;28;19928;-77
2021/12/23 11:02:28;;;;;;;53.28;30.95;;;2.30;99.90;;;;;;4997649;28;20045;-78
2021/12/23 11:10:53;;;;;;;59.45;31.77;;;0.10;99.90;;;;;;5030520;28;20042;-80
2021/12/23 11:38:59;;;;;;;52.20;30.73;;;2.30;99.90;;;;;;4990133;28;20107;-81
2021/12/23 11:44:03;;;;;;;59.28;30.73;;;0.20;99.90;;;;;;4996223;28;20049;-81
2021/12/23 11:46:38;;;;;;;58.00;31.50;;;0.20;99.90;;;;;;4973692;28;20048;-78
2021/12/23 11:49:08;;;;;;;51.17;29.77;;;0.20;99.90;;;;;;4980246;28;20396;-81
2021/12/23 11:54:09;;;;;;;52.38;29.17;;;0.50;99.90;;;;;;4996751;28;20046;-78
2021/12/23 11:56:39;;;;;;;63.53;32.60;;;0.20;99.90;;;;;;4995588;28;20061;-77
2021/12/23 11:59:09;;;;;;;59.13;31.98;;;0.10;99.90;;;;;;4980592;28;20124;-77
2021/12/23 12:01:46;;;;;;;58.75;31.08;;;0.20;99.90;;;;;;4996487;28;20061;-77
2021/12/23 12:04:21;;;;;;;56.40;30.67;;;0.20;99.90;;;;;;4996115;28;20053;-77
2021/12/23 12:06:48;;;;;;;52.08;29.83;;;0.20;99.90;;;;;;4980429;28;20128;-80
2021/12/23 12:09:16;;;;;;;58.25;30.92;;;1.70;99.90;;;;;;4996488;28;20050;-78
2021/12/23 12:12:06;;;;;;;60.67;33.30;;;0.30;99.90;;;;;;4979340;28;20045;-78
2021/12/23 12:14:41;;;;;;;62.55;32.97;;;0.30;99.90;;;;;;4989306;28;20058;-78
2021/12/23 12:17:25;;;;;;;58.92;32.58;;;0.20;99.90;;;;;;4995617;28;20064;-81
2021/12/23 12:20:07;;;;;;;59.87;31.70;;;0.30;99.90;;;;;;5013853;28;20137;-79
2021/12/23 12:22:45;;;;;;;52.30;29.88;;;0.30;99.90;;;;;;4972612;28;20281;-77
2021/12/23 12:25:32;;;;;;;64.32;33.70;;;0.30;99.90;;;;;;4979052;28;20046;-80
2021/12/23 12:27:58;;;;;;;61.00;32.90;;;0.40;99.90;;;;;;4996251;28;20100;-79
2021/12/23 12:31:16;;;;;;;58.88;33.40;;;0.40;99.90;;;;;;4979338;28;20529;-81
2021/12/23 12:33:45;;;;;;;56.05;31.02;;;0.40;99.90;;;;;;4944341;29;20043;-76
2021/12/23 12:36:15;;;;;;;60.63;32.63;;;0.40;99.90;;;;;;4999188;28;20481;-77
2021/12/23 12:38:48;;;;;;;64.15;36.38;;;0.70;99.90;;;;;;4978624;28;20053;-79
2021/12/23 12:41:34;;;;;;;59.47;33.28;;;0.40;99.90;;;;;;4996120;28;20053;-81
2021/12/23 12:44:21;;;;;;;60.80;32.55;;;0.40;99.90;;;;;;4979526;28;20045;-80
2021/12/23 12:47:09;;;;;;;55.00;31.83;;;0.40;99.90;;;;;;4995516;28;20444;-78
2021/12/23 12:50:01;;;;;;;65.10;34.28;;;0.40;99.90;;;;;;4972659;28;20046;-77
2021/12/23 12:52:36;;;;;;;67.80;33.10;;;0.50;99.90;;;;;;5002480;28;20406;-77
2021/12/23 12:55:09;;;;;;;63.58;32.40;;;0.50;99.90;;;;;;4979205;28;20052;-74
2021/12/23 12:57:39;;;;;;;65.57;33.83;;;0.70;99.90;;;;;;4978980;28;20049;-77
2021/12/23 13:00:21;;;;;;;66.85;32.47;;;0.50;99.90;;;;;;4994659;28;20045;-79
2021/12/23 13:03:04;;;;;;;58.03;31.52;;;0.50;99.90;;;;;;4979281;28;20514;-77
2021/12/23 13:05:52;;;;;;;56.38;31.05;;;0.40;99.90;;;;;;4971076;28;20552;-75
2021/12/23 13:08:20;;;;;;;60.33;31.58;;;0.50;99.90;;;;;;4994348;28;20046;-73
2021/12/23 13:10:48;;;;;;;61.72;32.90;;;0.50;99.90;;;;;;4979151;28;20452;-77
2021/12/23 13:13:36;;;;;;;62.60;32.70;;;0.50;99.90;;;;;;4994243;28;20585;-78
2021/12/23 13:16:10;;;;;;;57.50;31.15;;;0.50;99.90;;;;;;4979014;28;20054;-73
2021/12/23 13:18:36;;;;;;;64.75;33.88;;;0.50;99.90;;;;;;5004376;28;20204;-74
2021/12/23 13:21:05;;;;;;;63.38;32.40;;;1.10;99.90;;;;;;5027377;28;20128;-75
2021/12/23 13:23:45;;;;;;;64.57;33.75;;;0.30;99.90;;;;;;4986782;28;20042;-79
2021/12/23 13:26:13;;;;;;;59.30;31.17;;;0.50;99.90;;;;;;4994795;28;20049;-78
2021/12/23 13:28:48;;;;;;;60.53;32.33;;;1.10;99.90;;;;;;4977978;28;20398;-72
2021/12/23 13:31:21;;;;;;;54.97;27.65;;;1.10;99.90;;;;;;4978612;28;20048;-77
2021/12/23 13:33:53;;;;;;;67.75;34.10;;;0.50;99.90;;;;;;4978507;28;20505;-78
2021/12/23 13:36:29;;;;;;;67.22;32.70;;;0.50;99.90;;;;;;4977343;28;20371;-79
2021/12/23 13:39:10;;;;;;;57.47;30.70;;;0.50;99.90;;;;;;4995164;28;20445;-79
2021/12/23 13:41:39;;;;;;;59.55;31.13;;;0.50;99.90;;;;;;4970178;28;20382;-78
2021/12/23 13:44:14;;;;;;;58.38;31.20;;;0.50;99.90;;;;;;4978466;28;20489;-73
2021/12/23 13:46:40;;;;;;;70.38;34.25;;;0.50;99.90;;;;;;5003908;28;20096;-77
2021/12/23 13:49:07;;;;;;;63.30;32.08;;;0.50;99.90;;;;;;5010730;28;20050;-73
2021/12/23 13:51:36;;;;;;;61.00;33.05;;;0.50;99.90;;;;;;4993905;28;20077;-78